sensor_id;sensor_type;location;lat;lon;timestamp;pressure;altitude;pressure_sealevel;temperature;humidity
55460;BME280;41326;45.302;-122.946;2023-03-24T00:00:59;101386.25;;;19.02;49.80
55460;BME280;41326;45.302;-122.946;2023-03-24T00:03:27;101386.10;;;18.99;49.87
55460;BME280;41326;45.302;-122.946;2023-03-24T00:06:00;101390.78;;;18.94;50.12
55460;BME280;41326;45.302;-122.946;2023-03-24T00:08:27;101391.91;;;19.01;50.08
55460;BME280;41326;45.302;-122.946;2023-03-24T00:10:58;101390.77;;;19.13;50.06
55460;BME280;41326;45.302;-122.946;2023-03-24T00:13:28;101390.85;;;19.18;50.18
55460;BME280;41326;45.302;-122.946;2023-03-24T00:15:58;101393.33;;;19.14;50.40
55460;BME280;41326;45.302;-122.946;2023-03-24T00:18:28;101396.47;;;19.07;50.65
55460;BME280;41326;45.302;-122.946;2023-03-24T00:20:59;101396.47;;;19.05;50.78
55460;BME280;41326;45.302;-122.946;2023-03-24T00:23:30;101395.26;;;19.02;51.14
55460;BME280;41326;45.302;-122.946;2023-03-24T00:26:04;101392.24;;;19.08;50.66
55460;BME280;41326;45.302;-122.946;2023-03-24T00:28:30;101394.35;;;19.13;50.31
55460;BME280;41326;45.302;-122.946;2023-03-24T00:31:00;101402.36;;;19.08;50.30
55460;BME280;41326;45.302;-122.946;2023-03-24T00:33:31;101402.92;;;19.00;50.44
55460;BME280;41326;45.302;-122.946;2023-03-24T00:36:01;101397.38;;;18.95;50.51
55460;BME280;41326;45.302;-122.946;2023-03-24T00:38:32;101394.64;;;18.89;50.51
55460;BME280;41326;45.302;-122.946;2023-03-24T00:41:03;101395.42;;;18.89;50.47
55460;BME280;41326;45.302;-122.946;2023-03-24T00:43:33;101393.52;;;18.86;50.54
55460;BME280;41326;45.302;-122.946;2023-03-24T00:46:06;101391.58;;;18.80;50.70
55460;BME280;41326;45.302;-122.946;2023-03-24T00:48:33;101385.79;;;18.74;50.91
55460;BME280;41326;45.302;-122.946;2023-03-24T00:51:05;101388.33;;;18.69;51.05
55460;BME280;41326;45.302;-122.946;2023-03-24T00:53:33;101389.87;;;18.73;50.97
55460;BME280;41326;45.302;-122.946;2023-03-24T00:56:04;101382.39;;;18.83;50.80
55460;BME280;41326;45.302;-122.946;2023-03-24T00:58:34;101385.84;;;18.93;50.50
55460;BME280;41326;45.302;-122.946;2023-03-24T01:01:05;101385.76;;;18.96;50.42
55460;BME280;41326;45.302;-122.946;2023-03-24T01:03:35;101388.60;;;18.95;50.39
55460;BME280;41326;45.302;-122.946;2023-03-24T01:06:06;101389.44;;;18.93;50.50
55460;BME280;41326;45.302;-122.946;2023-03-24T01:08:36;101391.30;;;18.86;50.71
55460;BME280;41326;45.302;-122.946;2023-03-24T01:11:06;101389.05;;;18.80;50.88
55460;BME280;41326;45.302;-122.946;2023-03-24T01:13:36;101388.73;;;18.78;51.00
55460;BME280;41326;45.302;-122.946;2023-03-24T01:16:08;101386.68;;;18.77;51.01
55460;BME280;41326;45.302;-122.946;2023-03-24T01:18:37;101390.80;;;18.85;50.78
55460;BME280;41326;45.302;-122.946;2023-03-24T01:21:07;101390.11;;;18.97;50.37
55460;BME280;41326;45.302;-122.946;2023-03-24T01:23:38;101388.77;;;18.96;50.45
55460;BME280;41326;45.302;-122.946;2023-03-24T01:26:10;101389.80;;;18.95;50.53
55460;BME280;41326;45.302;-122.946;2023-03-24T01:28:38;101386.79;;;18.91;50.88
55460;BME280;41326;45.302;-122.946;2023-03-24T01:31:08;101387.14;;;18.88;50.94
55460;BME280;41326;45.302;-122.946;2023-03-24T01:33:39;101384.33;;;18.88;50.73
55460;BME280;41326;45.302;-122.946;2023-03-24T01:36:09;101384.78;;;18.98;50.28
55460;BME280;41326;45.302;-122.946;2023-03-24T01:38:40;101384.45;;;19.11;50.00
55460;BME280;41326;45.302;-122.946;2023-03-24T01:41:10;101388.04;;;19.13;49.90
55460;BME280;41326;45.302;-122.946;2023-03-24T01:43:42;101387.66;;;19.11;49.88
55460;BME280;41326;45.302;-122.946;2023-03-24T01:46:19;101388.55;;;19.05;50.07
55460;BME280;41326;45.302;-122.946;2023-03-24T01:48:45;101385.73;;;18.97;50.42
55460;BME280;41326;45.302;-122.946;2023-03-24T01:51:14;101379.55;;;18.94;51.30
55460;BME280;41326;45.302;-122.946;2023-03-24T01:53:47;101385.41;;;18.91;51.46
55460;BME280;41326;45.302;-122.946;2023-03-24T01:56:12;101387.15;;;18.84;51.80
55460;BME280;41326;45.302;-122.946;2023-03-24T01:58:46;101385.29;;;18.84;51.62
55460;BME280;41326;45.302;-122.946;2023-03-24T02:01:12;101392.16;;;18.83;51.80
55460;BME280;41326;45.302;-122.946;2023-03-24T02:03:43;101394.43;;;18.79;52.07
55460;BME280;41326;45.302;-122.946;2023-03-24T02:06:13;101400.89;;;18.75;52.36
55460;BME280;41326;45.302;-122.946;2023-03-24T02:08:47;101406.09;;;18.72;52.73
55460;BME280;41326;45.302;-122.946;2023-03-24T02:11:14;101411.29;;;18.72;52.68
55460;BME280;41326;45.302;-122.946;2023-03-24T02:13:44;101412.95;;;18.70;52.68
55460;BME280;41326;45.302;-122.946;2023-03-24T02:16:26;101423.53;;;18.70;52.72
55460;BME280;41326;45.302;-122.946;2023-03-24T02:18:51;101427.84;;;18.71;52.83
55460;BME280;41326;45.302;-122.946;2023-03-24T02:26:26;101423.42;;;18.64;55.54
55460;BME280;41326;45.302;-122.946;2023-03-24T02:28:54;101426.37;;;18.66;56.63
55460;BME280;41326;45.302;-122.946;2023-03-24T02:31:25;101425.95;;;18.64;57.07
55460;BME280;41326;45.302;-122.946;2023-03-24T02:36:32;101418.68;;;18.66;57.86
55460;BME280;41326;45.302;-122.946;2023-03-24T02:41:21;101420.35;;;18.75;57.39
55460;BME280;41326;45.302;-122.946;2023-03-24T02:43:54;101421.36;;;18.80;57.12
55460;BME280;41326;45.302;-122.946;2023-03-24T02:46:24;101423.01;;;18.77;57.28
55460;BME280;41326;45.302;-122.946;2023-03-24T02:48:58;101417.85;;;18.76;57.00
55460;BME280;41326;45.302;-122.946;2023-03-24T02:51:23;101413.32;;;18.73;56.85
55460;BME280;41326;45.302;-122.946;2023-03-24T02:53:57;101419.54;;;18.72;57.04
55460;BME280;41326;45.302;-122.946;2023-03-24T02:56:25;101416.24;;;18.69;56.88
55460;BME280;41326;45.302;-122.946;2023-03-24T02:58:54;101421.28;;;18.69;56.57
55460;BME280;41326;45.302;-122.946;2023-03-24T03:01:24;101421.44;;;18.64;56.30
55460;BME280;41326;45.302;-122.946;2023-03-24T03:03:53;101426.30;;;18.64;56.08
55460;BME280;41326;45.302;-122.946;2023-03-24T03:06:24;101425.11;;;18.62;56.02
55460;BME280;41326;45.302;-122.946;2023-03-24T03:08:53;101428.44;;;18.59;56.03
55460;BME280;41326;45.302;-122.946;2023-03-24T03:11:22;101431.40;;;18.57;55.97
55460;BME280;41326;45.302;-122.946;2023-03-24T03:13:55;101431.47;;;18.56;56.10
55460;BME280;41326;45.302;-122.946;2023-03-24T03:16:28;101435.13;;;18.50;56.31
55460;BME280;41326;45.302;-122.946;2023-03-24T03:18:54;101432.90;;;18.48;56.08
55460;BME280;41326;45.302;-122.946;2023-03-24T03:21:26;101430.23;;;18.45;56.08
55460;BME280;41326;45.302;-122.946;2023-03-24T03:23:55;101431.08;;;18.42;55.91
55460;BME280;41326;45.302;-122.946;2023-03-24T03:26:25;101431.78;;;18.42;55.72
55460;BME280;41326;45.302;-122.946;2023-03-24T03:28:56;101437.48;;;18.36;55.79
55460;BME280;41326;45.302;-122.946;2023-03-24T03:31:27;101443.23;;;18.32;55.91
55460;BME280;41326;45.302;-122.946;2023-03-24T03:34:00;101442.31;;;18.31;55.87
55460;BME280;41326;45.302;-122.946;2023-03-24T03:36:28;101439.44;;;18.30;56.08
55460;BME280;41326;45.302;-122.946;2023-03-24T03:38:59;101443.18;;;18.30;56.16
55460;BME280;41326;45.302;-122.946;2023-03-24T03:41:25;101444.28;;;18.30;56.12
55460;BME280;41326;45.302;-122.946;2023-03-24T03:43:55;101448.84;;;18.38;56.13
55460;BME280;41326;45.302;-122.946;2023-03-24T03:46:27;101451.25;;;18.53;55.81
55460;BME280;41326;45.302;-122.946;2023-03-24T03:48:56;101460.38;;;18.60;55.84
55460;BME280;41326;45.302;-122.946;2023-03-24T03:51:26;101464.81;;;18.61;56.00
55460;BME280;41326;45.302;-122.946;2023-03-24T03:53:59;101471.06;;;18.60;56.02
55460;BME280;41326;45.302;-122.946;2023-03-24T03:56:32;101477.53;;;18.55;56.23
55460;BME280;41326;45.302;-122.946;2023-03-24T03:58:58;101479.67;;;18.52;56.22
55460;BME280;41326;45.302;-122.946;2023-03-24T04:02:49;101488.36;;;18.51;56.00
55460;BME280;41326;45.302;-122.946;2023-03-24T04:05:21;101493.92;;;18.48;56.08
55460;BME280;41326;45.302;-122.946;2023-03-24T04:07:50;101497.43;;;18.43;56.23
55460;BME280;41326;45.302;-122.946;2023-03-24T04:10:21;101496.40;;;18.40;56.46
55460;BME280;41326;45.302;-122.946;2023-03-24T04:12:58;101500.01;;;18.37;56.57
55460;BME280;41326;45.302;-122.946;2023-03-24T04:15:26;101499.74;;;18.33;56.56
55460;BME280;41326;45.302;-122.946;2023-03-24T04:20:22;101500.82;;;18.32;56.09
55460;BME280;41326;45.302;-122.946;2023-03-24T04:23:00;101492.19;;;18.28;56.11
55460;BME280;41326;45.302;-122.946;2023-03-24T04:25:24;101493.35;;;18.25;56.14
55460;BME280;41326;45.302;-122.946;2023-03-24T04:27:54;101494.75;;;18.23;56.11
55460;BME280;41326;45.302;-122.946;2023-03-24T04:30:23;101497.59;;;18.21;56.15
55460;BME280;41326;45.302;-122.946;2023-03-24T04:32:55;101496.90;;;18.16;56.23
55460;BME280;41326;45.302;-122.946;2023-03-24T04:35:24;101498.64;;;18.16;56.15
55460;BME280;41326;45.302;-122.946;2023-03-24T04:37:50;101499.97;;;18.15;56.12
55460;BME280;41326;45.302;-122.946;2023-03-24T04:40:21;101503.59;;;18.18;55.94
55460;BME280;41326;45.302;-122.946;2023-03-24T04:42:53;101509.45;;;18.20;55.74
55460;BME280;41326;45.302;-122.946;2023-03-24T04:45:21;101513.04;;;18.16;55.91
55460;BME280;41326;45.302;-122.946;2023-03-24T04:47:53;101520.65;;;18.15;55.83
55460;BME280;41326;45.302;-122.946;2023-03-24T04:50:27;101530.04;;;18.11;55.85
55460;BME280;41326;45.302;-122.946;2023-03-24T04:52:52;101545.73;;;18.07;55.82
55460;BME280;41326;45.302;-122.946;2023-03-24T04:55:38;101560.95;;;18.03;55.84
55460;BME280;41326;45.302;-122.946;2023-03-24T04:57:53;101558.34;;;18.01;55.66
55460;BME280;41326;45.302;-122.946;2023-03-24T05:00:23;101559.35;;;18.01;55.62
55460;BME280;41326;45.302;-122.946;2023-03-24T05:02:55;101563.57;;;18.01;55.55
55460;BME280;41326;45.302;-122.946;2023-03-24T05:05:25;101567.19;;;17.97;55.64
55460;BME280;41326;45.302;-122.946;2023-03-24T05:07:54;101567.28;;;17.94;55.65
55460;BME280;41326;45.302;-122.946;2023-03-24T05:10:25;101568.82;;;17.92;55.74
55460;BME280;41326;45.302;-122.946;2023-03-24T05:12:55;101575.69;;;17.91;55.86
55460;BME280;41326;45.302;-122.946;2023-03-24T05:15:25;101577.05;;;17.91;55.72
55460;BME280;41326;45.302;-122.946;2023-03-24T05:17:56;101572.64;;;17.92;55.49
55460;BME280;41326;45.302;-122.946;2023-03-24T05:20:26;101567.38;;;17.89;55.41
55460;BME280;41326;45.302;-122.946;2023-03-24T05:22:58;101567.27;;;17.89;55.36
55460;BME280;41326;45.302;-122.946;2023-03-24T05:25:30;101558.45;;;17.86;55.38
55460;BME280;41326;45.302;-122.946;2023-03-24T05:27:58;101553.10;;;17.81;55.54
55460;BME280;41326;45.302;-122.946;2023-03-24T05:30:28;101555.63;;;17.79;55.53
55460;BME280;41326;45.302;-122.946;2023-03-24T05:32:59;101554.22;;;17.77;55.50
55460;BME280;41326;45.302;-122.946;2023-03-24T05:35:30;101557.36;;;17.78;55.31
55460;BME280;41326;45.302;-122.946;2023-03-24T05:38:00;101555.76;;;17.75;55.27
55460;BME280;41326;45.302;-122.946;2023-03-24T05:40:29;101555.09;;;17.77;54.97
55460;BME280;41326;45.302;-122.946;2023-03-24T05:42:59;101549.58;;;17.76;54.87
55460;BME280;41326;45.302;-122.946;2023-03-24T05:45:29;101547.12;;;17.71;54.83
55460;BME280;41326;45.302;-122.946;2023-03-24T05:48:00;101541.87;;;17.66;54.78
55460;BME280;41326;45.302;-122.946;2023-03-24T05:50:30;101538.12;;;17.64;54.74
55460;BME280;41326;45.302;-122.946;2023-03-24T05:53:01;101534.82;;;17.61;54.62
55460;BME280;41326;45.302;-122.946;2023-03-24T05:55:31;101530.56;;;17.58;54.68
55460;BME280;41326;45.302;-122.946;2023-03-24T05:58:02;101528.66;;;17.59;54.44
55460;BME280;41326;45.302;-122.946;2023-03-24T06:00:32;101533.43;;;17.59;54.30
55460;BME280;41326;45.302;-122.946;2023-03-24T06:03:03;101540.07;;;17.56;54.33
55460;BME280;41326;45.302;-122.946;2023-03-24T06:05:32;101547.24;;;17.56;54.28
55460;BME280;41326;45.302;-122.946;2023-03-24T06:08:03;101558.99;;;17.54;54.43
55460;BME280;41326;45.302;-122.946;2023-03-24T06:10:34;101565.54;;;17.51;54.51
55460;BME280;41326;45.302;-122.946;2023-03-24T06:13:04;101567.78;;;17.49;54.54
55460;BME280;41326;45.302;-122.946;2023-03-24T06:15:35;101573.45;;;17.51;54.50
55460;BME280;41326;45.302;-122.946;2023-03-24T06:18:06;101568.96;;;17.50;54.42
55460;BME280;41326;45.302;-122.946;2023-03-24T06:20:35;101568.58;;;17.49;54.38
55460;BME280;41326;45.302;-122.946;2023-03-24T06:23:07;101569.87;;;17.45;54.61
55460;BME280;41326;45.302;-122.946;2023-03-24T06:25:37;101574.43;;;17.44;54.56
55460;BME280;41326;45.302;-122.946;2023-03-24T06:28:09;101574.23;;;17.42;54.64
55460;BME280;41326;45.302;-122.946;2023-03-24T06:30:37;101577.24;;;17.38;54.78
55460;BME280;41326;45.302;-122.946;2023-03-24T06:33:08;101574.71;;;17.36;54.86
55460;BME280;41326;45.302;-122.946;2023-03-24T06:35:38;101571.68;;;17.32;54.98
55460;BME280;41326;45.302;-122.946;2023-03-24T06:38:08;101571.69;;;17.35;54.77
55460;BME280;41326;45.302;-122.946;2023-03-24T06:40:39;101571.71;;;17.33;54.69
55460;BME280;41326;45.302;-122.946;2023-03-24T06:43:09;101573.22;;;17.30;54.79
55460;BME280;41326;45.302;-122.946;2023-03-24T06:45:40;101579.69;;;17.29;54.81
55460;BME280;41326;45.302;-122.946;2023-03-24T06:48:10;101581.88;;;17.26;54.92
55460;BME280;41326;45.302;-122.946;2023-03-24T06:50:41;101591.83;;;17.27;54.78
55460;BME280;41326;45.302;-122.946;2023-03-24T06:53:11;101592.44;;;17.24;54.92
55460;BME280;41326;45.302;-122.946;2023-03-24T06:55:41;101589.44;;;17.23;54.86
55460;BME280;41326;45.302;-122.946;2023-03-24T06:58:11;101589.36;;;17.23;54.81
55460;BME280;41326;45.302;-122.946;2023-03-24T07:00:41;101587.99;;;17.23;54.68
55460;BME280;41326;45.302;-122.946;2023-03-24T07:03:12;101580.47;;;17.24;54.72
55460;BME280;41326;45.302;-122.946;2023-03-24T07:05:43;101575.36;;;17.22;54.84
55460;BME280;41326;45.302;-122.946;2023-03-24T07:08:12;101570.20;;;17.22;54.81
55460;BME280;41326;45.302;-122.946;2023-03-24T07:10:42;101574.65;;;17.18;54.86
55460;BME280;41326;45.302;-122.946;2023-03-24T07:13:12;101576.26;;;17.18;54.88
55460;BME280;41326;45.302;-122.946;2023-03-24T07:15:42;101580.84;;;17.18;54.89
55460;BME280;41326;45.302;-122.946;2023-03-24T07:18:13;101582.35;;;17.16;54.83
55460;BME280;41326;45.302;-122.946;2023-03-24T07:20:43;101584.29;;;17.14;54.84
55460;BME280;41326;45.302;-122.946;2023-03-24T07:23:13;101583.90;;;17.11;54.98
55460;BME280;41326;45.302;-122.946;2023-03-24T07:25:44;101588.86;;;17.08;55.07
55460;BME280;41326;45.302;-122.946;2023-03-24T07:28:13;101591.84;;;17.07;55.09
55460;BME280;41326;45.302;-122.946;2023-03-24T07:30:44;101593.92;;;17.05;55.13
55460;BME280;41326;45.302;-122.946;2023-03-24T07:33:14;101592.80;;;17.02;55.32
55460;BME280;41326;45.302;-122.946;2023-03-24T07:35:45;101590.14;;;17.00;55.38
55460;BME280;41326;45.302;-122.946;2023-03-24T07:38:15;101584.92;;;17.02;55.21
55460;BME280;41326;45.302;-122.946;2023-03-24T07:40:45;101588.51;;;17.02;55.17
55460;BME280;41326;45.302;-122.946;2023-03-24T07:43:16;101585.25;;;16.98;55.22
55460;BME280;41326;45.302;-122.946;2023-03-24T07:45:46;101581.05;;;16.96;55.25
55460;BME280;41326;45.302;-122.946;2023-03-24T07:48:17;101580.56;;;16.93;55.39
55460;BME280;41326;45.302;-122.946;2023-03-24T07:50:47;101579.14;;;16.97;55.21
55460;BME280;41326;45.302;-122.946;2023-03-24T07:53:18;101573.38;;;16.94;55.25
55460;BME280;41326;45.302;-122.946;2023-03-24T07:55:48;101570.95;;;16.92;55.38
55460;BME280;41326;45.302;-122.946;2023-03-24T07:58:18;101563.47;;;16.91;55.28
55460;BME280;41326;45.302;-122.946;2023-03-24T08:00:49;101563.10;;;16.89;55.30
55460;BME280;41326;45.302;-122.946;2023-03-24T08:03:19;101565.09;;;16.87;55.53
55460;BME280;41326;45.302;-122.946;2023-03-24T08:05:49;101578.16;;;16.85;55.69
55460;BME280;41326;45.302;-122.946;2023-03-24T08:08:19;101600.04;;;16.83;55.70
55460;BME280;41326;45.302;-122.946;2023-03-24T08:10:50;101611.36;;;16.83;55.64
55460;BME280;41326;45.302;-122.946;2023-03-24T08:13:20;101617.93;;;16.82;55.66
55460;BME280;41326;45.302;-122.946;2023-03-24T08:15:50;101623.84;;;16.82;55.55
55460;BME280;41326;45.302;-122.946;2023-03-24T08:18:22;101626.23;;;16.80;55.50
55460;BME280;41326;45.302;-122.946;2023-03-24T08:20:54;101628.01;;;16.81;55.34
55460;BME280;41326;45.302;-122.946;2023-03-24T08:23:22;101632.77;;;16.77;55.55
55460;BME280;41326;45.302;-122.946;2023-03-24T08:25:54;101630.49;;;16.76;55.61
55460;BME280;41326;45.302;-122.946;2023-03-24T08:28:23;101637.95;;;16.71;55.76
55460;BME280;41326;45.302;-122.946;2023-03-24T08:30:53;101636.72;;;16.74;55.60
55460;BME280;41326;45.302;-122.946;2023-03-24T08:33:23;101636.77;;;16.75;55.49
55460;BME280;41326;45.302;-122.946;2023-03-24T08:35:54;101637.12;;;16.73;55.45
55460;BME280;41326;45.302;-122.946;2023-03-24T08:38:24;101640.86;;;16.71;55.41
55460;BME280;41326;45.302;-122.946;2023-03-24T08:40:54;101638.62;;;16.69;55.75
55460;BME280;41326;45.302;-122.946;2023-03-24T08:43:24;101642.76;;;16.67;55.86
55460;BME280;41326;45.302;-122.946;2023-03-24T08:45:55;101641.90;;;16.66;55.81
55460;BME280;41326;45.302;-122.946;2023-03-24T08:48:25;101640.38;;;16.65;55.75
55460;BME280;41326;45.302;-122.946;2023-03-24T08:50:55;101640.72;;;16.65;55.66
55460;BME280;41326;45.302;-122.946;2023-03-24T08:53:26;101638.35;;;16.63;55.60
55460;BME280;41326;45.302;-122.946;2023-03-24T08:55:56;101641.05;;;16.65;55.41
55460;BME280;41326;45.302;-122.946;2023-03-24T08:58:27;101644.58;;;16.64;55.29
55460;BME280;41326;45.302;-122.946;2023-03-24T09:00:57;101643.62;;;16.60;55.34
55460;BME280;41326;45.302;-122.946;2023-03-24T09:03:27;101638.51;;;16.57;55.43
55460;BME280;41326;45.302;-122.946;2023-03-24T09:06:00;101632.48;;;16.57;55.36
55460;BME280;41326;45.302;-122.946;2023-03-24T09:08:28;101628.93;;;16.54;55.41
55460;BME280;41326;45.302;-122.946;2023-03-24T09:10:58;101635.45;;;16.51;55.42
55460;BME280;41326;45.302;-122.946;2023-03-24T09:13:28;101632.29;;;16.48;55.50
55460;BME280;41326;45.302;-122.946;2023-03-24T09:16:03;101634.57;;;16.48;55.51
55460;BME280;41326;45.302;-122.946;2023-03-24T09:18:29;101638.28;;;16.46;55.44
55460;BME280;41326;45.302;-122.946;2023-03-24T09:21:00;101637.57;;;16.47;55.33
55460;BME280;41326;45.302;-122.946;2023-03-24T09:23:30;101640.13;;;16.47;55.38
55460;BME280;41326;45.302;-122.946;2023-03-24T09:26:00;101649.73;;;16.44;55.51
55460;BME280;41326;45.302;-122.946;2023-03-24T09:28:31;101650.65;;;16.42;55.49
55460;BME280;41326;45.302;-122.946;2023-03-24T09:31:04;101651.19;;;16.38;55.52
55460;BME280;41326;45.302;-122.946;2023-03-24T09:33:32;101650.07;;;16.38;55.57
55460;BME280;41326;45.302;-122.946;2023-03-24T09:36:03;101652.03;;;16.36;55.72
55460;BME280;41326;45.302;-122.946;2023-03-24T09:38:32;101652.61;;;16.36;55.60
55460;BME280;41326;45.302;-122.946;2023-03-24T09:43:39;101662.85;;;16.36;55.66
55460;BME280;41326;45.302;-122.946;2023-03-24T09:46:05;101662.83;;;16.33;55.67
55460;BME280;41326;45.302;-122.946;2023-03-24T09:48:39;101666.95;;;16.32;55.66
55460;BME280;41326;45.302;-122.946;2023-03-24T09:51:05;101673.75;;;16.31;55.64
55460;BME280;41326;45.302;-122.946;2023-03-24T09:53:39;101674.93;;;16.27;55.80
55460;BME280;41326;45.302;-122.946;2023-03-24T09:56:10;101671.57;;;16.24;56.00
55460;BME280;41326;45.302;-122.946;2023-03-24T09:58:35;101672.73;;;16.26;55.74
55460;BME280;41326;45.302;-122.946;2023-03-24T10:01:04;101671.74;;;16.25;55.66
55460;BME280;41326;45.302;-122.946;2023-03-24T10:03:35;101668.66;;;16.25;55.72
55460;BME280;41326;45.302;-122.946;2023-03-24T10:06:08;101670.79;;;16.22;55.78
55460;BME280;41326;45.302;-122.946;2023-03-24T10:08:38;101669.61;;;16.20;55.84
55460;BME280;41326;45.302;-122.946;2023-03-24T10:11:10;101677.20;;;16.18;55.88
55460;BME280;41326;45.302;-122.946;2023-03-24T10:13:45;101682.73;;;16.17;55.90
55460;BME280;41326;45.302;-122.946;2023-03-24T10:16:12;101684.69;;;16.15;55.87
55460;BME280;41326;45.302;-122.946;2023-03-24T10:18:43;101690.08;;;16.21;55.51
55460;BME280;41326;45.302;-122.946;2023-03-24T10:21:13;101694.50;;;16.18;55.49
55460;BME280;41326;45.302;-122.946;2023-03-24T10:23:43;101700.83;;;16.13;55.61
55460;BME280;41326;45.302;-122.946;2023-03-24T10:26:15;101705.02;;;16.10;55.71
55460;BME280;41326;45.302;-122.946;2023-03-24T10:28:43;101707.36;;;16.13;55.60
55460;BME280;41326;45.302;-122.946;2023-03-24T10:31:10;101705.90;;;16.10;55.60
55460;BME280;41326;45.302;-122.946;2023-03-24T10:33:39;101701.11;;;16.08;55.66
55460;BME280;41326;45.302;-122.946;2023-03-24T10:36:12;101689.71;;;16.08;55.63
55460;BME280;41326;45.302;-122.946;2023-03-24T10:38:39;101688.57;;;16.06;55.58
55460;BME280;41326;45.302;-122.946;2023-03-24T10:41:12;101691.26;;;16.07;55.41
55460;BME280;41326;45.302;-122.946;2023-03-24T10:43:40;101691.23;;;16.06;55.45
55460;BME280;41326;45.302;-122.946;2023-03-24T10:46:11;101691.09;;;16.05;55.59
55460;BME280;41326;45.302;-122.946;2023-03-24T10:48:47;101685.91;;;16.04;55.64
55460;BME280;41326;45.302;-122.946;2023-03-24T10:51:16;101686.52;;;16.01;55.75
55460;BME280;41326;45.302;-122.946;2023-03-24T10:53:41;101682.03;;;15.97;55.80
55460;BME280;41326;45.302;-122.946;2023-03-24T10:56:14;101688.77;;;15.96;55.85
55460;BME280;41326;45.302;-122.946;2023-03-24T10:58:43;101688.99;;;15.97;55.60
55460;BME280;41326;45.302;-122.946;2023-03-24T11:03:43;101687.67;;;15.94;55.57
55460;BME280;41326;45.302;-122.946;2023-03-24T11:06:20;101680.42;;;15.94;55.50
55460;BME280;41326;45.302;-122.946;2023-03-24T11:08:45;101680.40;;;15.94;55.46
55460;BME280;41326;45.302;-122.946;2023-03-24T11:13:52;101686.31;;;15.90;55.49
55460;BME280;41326;45.302;-122.946;2023-03-24T11:16:16;101691.21;;;15.92;55.39
55460;BME280;41326;45.302;-122.946;2023-03-24T11:18:55;101693.83;;;15.93;55.13
55460;BME280;41326;45.302;-122.946;2023-03-24T11:21:15;101689.74;;;15.91;55.13
55460;BME280;41326;45.302;-122.946;2023-03-24T11:23:46;101690.21;;;15.88;55.22
55460;BME280;41326;45.302;-122.946;2023-03-24T11:26:19;101691.47;;;15.87;55.26
55460;BME280;41326;45.302;-122.946;2023-03-24T11:28:49;101691.55;;;15.85;55.31
55460;BME280;41326;45.302;-122.946;2023-03-24T11:31:21;101686.44;;;15.83;55.38
55460;BME280;41326;45.302;-122.946;2023-03-24T11:33:53;101688.31;;;15.82;55.34
55460;BME280;41326;45.302;-122.946;2023-03-24T11:38:47;101694.05;;;15.84;55.02
55460;BME280;41326;45.302;-122.946;2023-03-24T11:41:22;101695.43;;;15.81;55.04
55460;BME280;41326;45.302;-122.946;2023-03-24T11:43:47;101693.17;;;15.76;55.32
55460;BME280;41326;45.302;-122.946;2023-03-24T11:46:21;101692.51;;;15.74;55.46
55460;BME280;41326;45.302;-122.946;2023-03-24T11:48:52;101689.55;;;15.73;55.48
55460;BME280;41326;45.302;-122.946;2023-03-24T11:51:22;101680.43;;;15.75;55.29
55460;BME280;41326;45.302;-122.946;2023-03-24T11:53:52;101680.72;;;15.71;55.42
55460;BME280;41326;45.302;-122.946;2023-03-24T11:56:22;101677.35;;;15.72;55.34
55460;BME280;41326;45.302;-122.946;2023-03-24T11:58:51;101676.18;;;15.71;55.23
55460;BME280;41326;45.302;-122.946;2023-03-24T12:01:25;101678.76;;;15.69;55.15
55460;BME280;41326;45.302;-122.946;2023-03-24T12:03:58;101684.38;;;15.67;55.23
55460;BME280;41326;45.302;-122.946;2023-03-24T12:06:29;101688.03;;;15.67;55.27
55460;BME280;41326;45.302;-122.946;2023-03-24T12:09:00;101691.44;;;15.64;55.35
55460;BME280;41326;45.302;-122.946;2023-03-24T12:11:26;101688.83;;;15.65;55.26
55460;BME280;41326;45.302;-122.946;2023-03-24T12:13:52;101691.45;;;15.63;55.35
55460;BME280;41326;45.302;-122.946;2023-03-24T12:19:00;101683.07;;;15.63;55.28
55460;BME280;41326;45.302;-122.946;2023-03-24T12:23:58;101689.95;;;15.60;55.22
55460;BME280;41326;45.302;-122.946;2023-03-24T12:26:26;101692.45;;;15.59;55.29
55460;BME280;41326;45.302;-122.946;2023-03-24T12:29:08;101690.98;;;15.59;55.26
55460;BME280;41326;45.302;-122.946;2023-03-24T12:31:36;101684.56;;;15.57;55.22
55460;BME280;41326;45.302;-122.946;2023-03-24T12:34:03;101686.56;;;15.54;55.30
55460;BME280;41326;45.302;-122.946;2023-03-24T12:36:30;101685.89;;;15.56;55.30
55460;BME280;41326;45.302;-122.946;2023-03-24T12:39:06;101688.44;;;15.53;55.18
55460;BME280;41326;45.302;-122.946;2023-03-24T12:46:35;101693.35;;;15.47;55.27
55460;BME280;41326;45.302;-122.946;2023-03-24T12:49:10;101700.48;;;15.46;55.33
55460;BME280;41326;45.302;-122.946;2023-03-24T12:51:33;101701.44;;;15.43;55.40
55460;BME280;41326;45.302;-122.946;2023-03-24T12:54:04;101703.36;;;15.43;55.37
55460;BME280;41326;45.302;-122.946;2023-03-24T12:56:33;101704.97;;;15.42;55.54
55460;BME280;41326;45.302;-122.946;2023-03-24T12:59:00;101711.14;;;15.42;55.36
55460;BME280;41326;45.302;-122.946;2023-03-24T13:01:32;101710.19;;;15.46;55.04
55460;BME280;41326;45.302;-122.946;2023-03-24T13:04:03;101713.80;;;15.61;54.44
55460;BME280;41326;45.302;-122.946;2023-03-24T13:06:32;101711.28;;;15.79;53.96
55460;BME280;41326;45.302;-122.946;2023-03-24T13:09:11;101693.61;;;15.97;53.41